Time;durP1;ratioP1;P1;durP2;ratioP2;P2;SDS_P1;SDS_P2;PMS_P1;PMS_P2;Temp;Humidity;BMP_temperature;BMP_pressure;BME280_temperature;BME280_humidity;BME280_pressure;Samples;Min_cycle;Max_cycle;Signal;HPM_P1;HPM_P2
2021/07/07 00:01:03;;;;;;;12.35;4.18;;;13.60;99.90;;;13.26;100.00;100886.06;4184029;28;20152;-73
2021/07/07 00:03:04;;;;;;;8.18;3.05;;;13.50;99.90;;;13.28;100.00;100886.75;4183831;28;20487;-72
2021/07/07 00:05:07;;;;;;;9.88;4.15;;;13.50;99.90;;;13.39;100.00;100888.19;4184006;28;20063;-72
2021/07/07 00:07:08;;;;;;;8.23;3.72;;;13.50;99.90;;;13.32;100.00;100882.75;4183950;28;20056;-73
2021/07/07 00:09:09;;;;;;;7.03;3.65;;;13.50;99.90;;;13.30;100.00;100890.06;4183681;28;20029;-72
2021/07/07 00:11:10;;;;;;;11.77;3.90;;;13.50;99.90;;;13.24;100.00;100892.53;4185107;28;20025;-72
2021/07/07 00:13:12;;;;;;;11.95;4.15;;;13.50;99.90;;;13.24;100.00;100882.78;4185196;28;20029;-72
2021/07/07 00:15:20;;;;;;;10.65;4.38;;;13.50;99.90;;;13.21;100.00;100888.41;4183846;28;20040;-73
2021/07/07 00:17:21;;;;;;;10.55;4.32;;;13.50;99.90;;;13.16;100.00;100890.75;4183899;28;20503;-73
2021/07/07 00:19:22;;;;;;;9.63;3.80;;;13.50;99.90;;;13.21;100.00;100888.41;4183686;28;20037;-73
2021/07/07 00:21:23;;;;;;;7.43;4.10;;;13.50;99.90;;;13.02;100.00;100883.44;4183958;28;20021;-73
2021/07/07 00:23:27;;;;;;;5.82;3.40;;;13.40;99.90;;;13.10;100.00;100893.25;4184778;28;20025;-73
2021/07/07 00:25:29;;;;;;;9.10;4.00;;;13.40;99.90;;;13.04;100.00;100886.78;4183696;28;20025;-72
2021/07/07 00:27:31;;;;;;;10.57;4.13;;;13.40;99.90;;;13.07;100.00;100897.03;4183614;28;20516;-72
2021/07/07 00:29:32;;;;;;;10.68;3.38;;;13.40;99.90;;;12.96;100.00;100894.72;4183799;28;20028;-72
2021/07/07 00:31:33;;;;;;;11.60;3.65;;;13.30;99.90;;;13.13;100.00;100907.00;4184944;28;20029;-73
2021/07/07 00:33:34;;;;;;;8.10;3.08;;;13.30;99.90;;;13.06;100.00;100895.38;4184844;28;20484;-73
2021/07/07 00:35:35;;;;;;;10.23;3.28;;;13.30;99.90;;;13.04;100.00;100909.78;4185034;28;20025;-72
2021/07/07 00:37:36;;;;;;;12.23;3.72;;;13.30;99.90;;;13.09;100.00;100899.53;4184549;28;20060;-73
2021/07/07 00:39:38;;;;;;;10.07;3.30;;;13.30;99.90;;;13.13;100.00;100903.50;4216727;28;20082;-73
2021/07/07 00:41:39;;;;;;;9.35;3.45;;;13.30;99.90;;;13.05;100.00;100898.19;4183554;28;20068;-72
2021/07/07 00:43:40;;;;;;;13.57;4.03;;;13.30;99.90;;;12.95;100.00;100908.13;4218069;28;20024;-72
2021/07/07 00:45:42;;;;;;;8.20;3.55;;;13.20;99.90;;;12.81;100.00;100888.47;4216814;28;20024;-73
2021/07/07 00:47:45;;;;;;;7.00;3.40;;;13.20;99.90;;;12.95;100.00;100898.38;4218212;28;20498;-72
2021/07/07 00:49:46;;;;;;;9.05;4.53;;;13.20;99.90;;;12.94;100.00;100899.34;4200368;28;20020;-73
2021/07/07 00:51:48;;;;;;;6.50;3.72;;;13.20;99.90;;;12.92;100.00;100885.47;4199993;28;20028;-72
2021/07/07 00:53:51;;;;;;;8.18;4.43;;;13.20;99.90;;;12.95;100.00;100892.25;4199926;28;20036;-73
2021/07/07 00:55:55;;;;;;;8.70;4.07;;;13.20;99.90;;;12.94;100.00;100895.88;4200171;28;20029;-73
2021/07/07 00:57:57;;;;;;;12.13;4.53;;;13.20;99.90;;;12.91;100.00;100898.84;4217869;28;20111;-72
2021/07/07 00:59:58;;;;;;;15.43;4.90;;;13.20;99.90;;;12.94;100.00;100902.00;4201323;28;20029;-73
2021/07/07 01:02:03;;;;;;;10.32;5.07;;;13.10;99.90;;;12.94;100.00;100899.34;4203423;28;20408;-72
2021/07/07 01:04:04;;;;;;;10.13;4.13;;;13.10;99.90;;;12.89;100.00;100893.75;4203408;28;20017;-72
2021/07/07 01:06:05;;;;;;;10.35;4.20;;;13.10;99.90;;;12.96;100.00;100897.34;4219959;28;20028;-72
2021/07/07 01:08:06;;;;;;;10.75;4.97;;;13.10;99.90;;;13.05;100.00;100893.69;4203076;28;20027;-73
2021/07/07 01:10:11;;;;;;;8.70;4.32;;;13.10;99.90;;;12.99;100.00;100904.16;4221046;28;20051;-73
2021/07/07 01:12:12;;;;;;;9.70;4.22;;;13.20;99.90;;;13.02;100.00;100898.53;4203331;28;20039;-73
2021/07/07 01:14:13;;;;;;;10.43;3.78;;;13.10;99.90;;;12.91;100.00;100898.84;4203104;28;20036;-73
2021/07/07 01:16:14;;;;;;;11.07;4.68;;;13.10;99.90;;;12.81;100.00;100893.75;4221154;28;20623;-72
2021/07/07 01:18:14;;;;;;;7.07;3.50;;;13.10;99.90;;;12.88;100.00;100899.19;4186501;28;20029;-72
2021/07/07 01:20:21;;;;;;;11.82;4.32;;;13.10;99.90;;;12.82;100.00;100898.03;4203106;28;20056;-72
2021/07/07 01:22:21;;;;;;;8.55;3.33;;;13.10;99.90;;;12.85;100.00;100902.16;4221098;28;20027;-73
2021/07/07 01:24:23;;;;;;;9.80;3.70;;;13.00;99.90;;;12.75;100.00;100894.44;4220679;28;20085;-73
2021/07/07 01:26:24;;;;;;;13.98;3.97;;;13.00;99.90;;;12.75;100.00;100900.53;4221034;28;20093;-73
2021/07/07 01:28:25;;;;;;;8.68;3.85;;;13.00;99.90;;;12.84;100.00;100904.03;4220885;28;20081;-73
2021/07/07 01:30:25;;;;;;;7.93;3.72;;;13.00;99.90;;;12.78;100.00;100894.09;4220927;28;20032;-73
2021/07/07 01:32:26;;;;;;;8.93;3.78;;;13.00;99.90;;;12.86;100.00;100904.66;4220732;28;20099;-73
2021/07/07 01:34:27;;;;;;;10.80;4.00;;;13.00;99.90;;;12.84;100.00;100900.53;4186190;28;20128;-72
2021/07/07 01:36:30;;;;;;;8.60;3.50;;;13.00;99.90;;;12.86;100.00;100902.03;4220811;28;20111;-72
2021/07/07 01:38:31;;;;;;;7.68;3.95;;;13.00;99.90;;;12.79;100.00;100906.31;4202514;28;20048;-72
2021/07/07 01:40:32;;;;;;;9.80;3.90;;;13.00;99.90;;;12.80;100.00;100907.16;4220651;28;20415;-73
2021/07/07 01:42:34;;;;;;;11.70;4.70;;;13.00;99.90;;;12.73;100.00;100901.69;4202750;28;20058;-73
2021/07/07 01:44:34;;;;;;;9.45;4.10;;;12.90;99.90;;;12.68;100.00;100901.38;4202774;28;20459;-72
2021/07/07 01:46:35;;;;;;;9.30;3.42;;;12.90;99.90;;;12.77;100.00;100905.66;4220637;28;20024;-72
2021/07/07 01:48:36;;;;;;;10.05;3.38;;;12.90;99.90;;;12.86;100.00;100914.44;4220695;28;20028;-72
2021/07/07 01:50:37;;;;;;;8.75;3.08;;;12.90;99.90;;;12.77;100.00;100921.53;4202756;28;20093;-72
2021/07/07 01:52:39;;;;;;;8.77;4.28;;;12.90;99.90;;;12.67;100.00;100915.56;4220611;28;20052;-72
2021/07/07 01:54:40;;;;;;;5.20;2.95;;;12.90;99.90;;;12.66;100.00;100903.34;4202365;28;20078;-73
2021/07/07 01:56:41;;;;;;;6.38;3.17;;;12.90;99.90;;;12.64;100.00;100908.81;4202568;28;20227;-72
2021/07/07 01:58:42;;;;;;;10.60;4.55;;;12.90;99.90;;;12.68;100.00;100904.84;4220495;28;20461;-72
2021/07/07 02:00:43;;;;;;;9.65;3.75;;;12.90;99.90;;;12.78;100.00;100910.78;4202493;28;20017;-72
2021/07/07 02:02:49;;;;;;;10.15;4.88;;;12.90;99.90;;;12.80;100.00;100907.97;4220375;28;20028;-73
2021/07/07 02:04:50;;;;;;;7.75;4.10;;;12.90;99.90;;;12.74;100.00;100912.13;4202613;28;20498;-72
2021/07/07 02:06:51;;;;;;;6.10;3.60;;;12.90;99.90;;;12.59;100.00;100912.94;4185793;28;20033;-73
2021/07/07 02:08:52;;;;;;;13.38;4.40;;;12.80;99.90;;;12.59;100.00;100923.53;4202124;28;20107;-72
2021/07/07 02:10:54;;;;;;;5.72;3.50;;;12.90;99.90;;;12.60;100.00;100918.06;4201895;28;20031;-73
2021/07/07 02:12:55;;;;;;;10.90;4.07;;;12.90;99.90;;;12.75;100.00;100918.25;4220294;28;20028;-72
2021/07/07 02:14:56;;;;;;;8.98;3.60;;;12.90;99.90;;;12.77;100.00;100919.72;4202360;28;20028;-73
2021/07/07 02:16:57;;;;;;;5.18;2.90;;;12.90;99.90;;;12.73;100.00;100914.91;4220164;28;20062;-73
2021/07/07 02:18:58;;;;;;;8.10;3.20;;;12.90;99.90;;;12.82;100.00;100921.88;4202104;28;20505;-73
2021/07/07 02:21:00;;;;;;;7.97;3.50;;;13.00;99.90;;;12.68;100.00;100917.25;4219999;28;20027;-73
2021/07/07 02:23:01;;;;;;;5.97;2.85;;;13.00;99.90;;;12.68;100.00;100917.25;4220098;28;20036;-73
2021/07/07 02:25:09;;;;;;;10.50;3.67;;;12.90;99.90;;;12.75;100.00;100921.69;4201616;28;20024;-72
2021/07/07 02:27:10;;;;;;;11.25;3.80;;;12.90;99.90;;;12.76;100.00;100920.72;4202699;28;20036;-73
2021/07/07 02:29:11;;;;;;;8.52;3.95;;;13.00;99.90;;;12.64;100.00;100914.09;4219910;28;20043;-72
2021/07/07 02:31:12;;;;;;;10.32;3.65;;;12.90;99.90;;;12.75;100.00;100923.53;4220090;28;20032;-72
2021/07/07 02:33:14;;;;;;;10.13;3.83;;;12.90;99.90;;;12.59;100.00;100924.34;4201987;28;20032;-73
2021/07/07 02:35:19;;;;;;;8.02;3.63;;;12.90;99.90;;;12.57;100.00;100923.66;4201962;28;20055;-73
2021/07/07 02:37:20;;;;;;;7.40;3.90;;;12.80;99.90;;;12.69;100.00;100924.19;4202078;28;20033;-73
2021/07/07 02:39:21;;;;;;;10.02;3.50;;;12.90;99.90;;;12.57;100.00;100923.66;4219427;28;20036;-73
2021/07/07 02:41:22;;;;;;;8.52;3.58;;;12.90;99.90;;;12.47;100.00;100928.31;4201926;28;20040;-73
2021/07/07 02:43:24;;;;;;;9.93;3.50;;;12.80;99.90;;;12.37;100.00;100913.56;4219851;28;20024;-73
2021/07/07 02:45:27;;;;;;;9.43;3.65;;;12.80;99.90;;;12.41;100.00;100918.38;4219750;28;20493;-73
2021/07/07 02:47:28;;;;;;;7.23;3.93;;;12.70;99.90;;;12.41;100.00;100930.78;4185262;28;20036;-73
2021/07/07 02:49:29;;;;;;;5.93;3.47;;;12.70;99.90;;;12.45;100.00;100926.81;4219715;28;20036;-72
2021/07/07 02:51:30;;;;;;;8.35;3.10;;;12.70;99.90;;;12.45;100.00;100930.31;4201784;28;20530;-73
2021/07/07 02:53:31;;;;;;;6.35;3.35;;;12.70;99.90;;;12.46;100.00;100918.72;4201478;28;20063;-72
2021/07/07 02:55:32;;;;;;;8.07;3.80;;;12.70;99.90;;;12.47;100.00;100927.47;4219762;28;20510;-73
2021/07/07 02:57:56;;;;;;;5.55;2.90;;;12.70;99.90;;;12.41;100.00;100925.50;4185057;28;20040;-73
2021/07/07 02:59:53;;;;;;;6.22;3.10;;;12.70;99.90;;;12.50;100.00;100927.16;4204265;28;20044;-73
2021/07/07 03:01:54;;;;;;;6.50;3.58;;;12.70;99.90;;;12.52;100.00;100935.75;4201745;28;20029;-72
2021/07/07 03:03:55;;;;;;;12.23;3.97;;;12.60;99.90;;;12.55;100.00;100922.19;4185019;28;20583;-73
2021/07/07 03:06:02;;;;;;;11.43;3.72;;;12.70;99.90;;;12.51;100.00;100918.22;4219505;28;20548;-73
2021/07/07 03:08:03;;;;;;;8.85;3.92;;;12.70;99.90;;;12.44;100.00;100917.22;4184841;28;20485;-73
2021/07/07 03:10:08;;;;;;;10.38;3.90;;;12.70;99.90;;;12.48;100.00;100914.09;4201247;28;20076;-73
2021/07/07 03:12:09;;;;;;;6.90;3.22;;;12.70;99.90;;;12.39;100.00;100908.97;4219375;28;20027;-73
2021/07/07 03:14:10;;;;;;;11.48;4.30;;;12.70;99.90;;;12.52;100.00;100920.69;4219353;28;20012;-73
2021/07/07 03:16:11;;;;;;;10.73;4.30;;;12.70;99.90;;;12.50;100.00;100913.94;4201158;28;20021;-73
2021/07/07 03:18:13;;;;;;;11.18;4.57;;;12.70;99.90;;;12.43;100.00;100923.50;4201459;28;20033;-72
2021/07/07 03:20:15;;;;;;;6.05;3.80;;;12.70;99.90;;;12.48;100.00;100916.75;4201289;28;20032;-72
2021/07/07 03:22:17;;;;;;;5.78;3.88;;;12.70;99.90;;;12.51;100.00;100926.16;4183756;28;20021;-73
2021/07/07 03:24:18;;;;;;;9.90;4.65;;;12.70;99.90;;;12.50;100.00;100929.78;4218749;28;20020;-73
2021/07/07 03:26:19;;;;;;;6.97;3.72;;;12.70;99.90;;;12.53;100.00;100924.19;4201345;28;20032;-72
2021/07/07 03:28:22;;;;;;;9.88;4.22;;;12.70;99.90;;;12.54;100.00;100924.03;4184584;28;20083;-72
2021/07/07 03:30:26;;;;;;;9.38;4.55;;;12.80;99.90;;;12.51;100.00;100932.28;4201194;28;20024;-73
2021/07/07 03:32:27;;;;;;;7.47;4.22;;;12.70;99.90;;;12.36;100.00;100933.94;4201665;28;20043;-73
2021/07/07 03:34:28;;;;;;;13.15;5.88;;;12.70;99.90;;;12.41;100.00;100941.34;4219114;28;20020;-72
2021/07/07 03:36:29;;;;;;;7.93;4.05;;;12.70;99.90;;;12.36;100.00;100939.22;4217781;28;20028;-72
2021/07/07 03:38:30;;;;;;;5.20;3.70;;;12.70;99.90;;;12.38;100.00;100939.88;4218707;28;20052;-72
2021/07/07 03:40:33;;;;;;;7.60;4.38;;;12.70;99.90;;;12.36;100.00;100928.63;4200736;28;20174;-72
2021/07/07 03:42:34;;;;;;;13.90;4.18;;;12.70;99.90;;;12.37;100.00;100937.38;4201081;28;20328;-72
2021/07/07 03:44:35;;;;;;;8.57;3.90;;;12.70;99.90;;;12.42;100.00;100953.59;4201001;28;20198;-72
2021/07/07 03:46:36;;;;;;;12.63;4.45;;;12.70;99.90;;;12.49;100.00;100952.78;4200967;28;20025;-72
2021/07/07 03:48:36;;;;;;;5.68;3.53;;;12.70;99.90;;;12.39;100.00;100943.34;4218753;28;20039;-73
2021/07/07 03:50:38;;;;;;;7.75;3.63;;;12.70;99.90;;;12.24;100.00;100937.03;4218950;28;20031;-72
2021/07/07 03:52:40;;;;;;;8.52;3.50;;;12.60;99.90;;;12.24;100.00;100950.25;4200794;28;20032;-72
2021/07/07 03:54:41;;;;;;;6.32;3.08;;;12.50;99.90;;;12.18;100.00;100946.44;4218507;28;20079;-72
2021/07/07 03:56:42;;;;;;;5.93;3.30;;;12.50;99.90;;;12.18;100.00;100947.25;4200670;28;20036;-72
2021/07/07 03:58:43;;;;;;;7.60;3.47;;;12.50;99.90;;;12.16;100.00;100951.88;4218706;28;20032;-72
2021/07/07 04:00:44;;;;;;;7.53;3.78;;;12.50;99.90;;;12.19;100.00;100954.19;4218527;28;20210;-72
2021/07/07 04:02:45;;;;;;;7.70;3.20;;;12.50;99.90;;;12.24;100.00;100952.91;4200658;28;20091;-72
2021/07/07 04:04:46;;;;;;;4.03;3.10;;;12.50;99.90;;;12.26;100.00;100950.91;4200448;28;20512;-72
2021/07/07 04:06:47;;;;;;;6.72;3.05;;;12.50;99.90;;;12.27;100.00;100955.22;4218679;28;20027;-72
2021/07/07 04:08:47;;;;;;;6.65;4.45;;;12.50;99.90;;;12.05;100.00;100960.13;4218372;28;20032;-72
2021/07/07 04:10:48;;;;;;;4.97;3.33;;;12.40;99.90;;;12.09;100.00;100963.28;4183927;28;20028;-72
2021/07/07 04:12:50;;;;;;;10.52;4.18;;;12.40;99.90;;;12.05;100.00;100948.72;4200458;28;20033;-72
2021/07/07 04:14:50;;;;;;;7.53;3.40;;;12.40;99.90;;;12.06;100.00;100959.16;4218566;28;20394;-72
2021/07/07 04:16:57;;;;;;;8.82;3.63;;;12.40;99.90;;;11.87;100.00;100963.84;4218551;28;20036;-72
2021/07/07 04:18:58;;;;;;;10.32;4.07;;;12.30;99.90;;;11.99;100.00;100959.94;4218454;28;20028;-74
2021/07/07 04:20:59;;;;;;;8.02;3.55;;;12.30;99.90;;;11.99;100.00;100958.13;4200452;28;20031;-73
2021/07/07 04:23:00;;;;;;;13.13;3.53;;;12.30;99.90;;;11.97;100.00;100960.09;4200547;28;20028;-73
2021/07/07 04:25:01;;;;;;;6.80;3.20;;;12.20;99.90;;;12.01;100.00;100971.16;4203827;28;20054;-73
2021/07/07 04:27:03;;;;;;;10.50;3.42;;;12.30;99.90;;;12.03;100.00;100966.56;4200582;28;20028;-72
2021/07/07 04:29:04;;;;;;;7.50;3.00;;;12.30;99.90;;;12.16;100.00;100958.97;4218289;28;20552;-73
2021/07/07 04:31:05;;;;;;;11.57;3.15;;;12.30;99.90;;;12.07;100.00;100963.41;4200580;28;20020;-73
2021/07/07 04:33:06;;;;;;;6.75;3.20;;;12.30;99.90;;;12.05;100.00;100973.34;4218220;28;20024;-72
2021/07/07 04:35:09;;;;;;;7.07;3.05;;;12.30;99.90;;;12.00;100.00;100969.53;4200288;28;20419;-72
2021/07/07 04:37:11;;;;;;;8.45;2.78;;;12.30;99.90;;;11.91;100.00;100960.72;4200381;28;20032;-73
2021/07/07 04:39:12;;;;;;;5.22;3.63;;;12.30;99.90;;;11.93;100.00;100964.03;4217787;28;20044;-72
2021/07/07 04:41:13;;;;;;;5.07;2.75;;;12.30;99.90;;;11.95;100.00;100967.34;4218241;28;20031;-72
2021/07/07 04:43:14;;;;;;;7.85;3.17;;;12.30;99.90;;;11.91;100.00;100965.19;4200276;28;20040;-72
2021/07/07 04:45:15;;;;;;;7.50;2.53;;;12.30;99.90;;;12.04;100.00;100966.38;4218115;28;20024;-72
2021/07/07 04:47:16;;;;;;;7.35;3.38;;;12.40;99.90;;;12.09;100.00;100973.84;4200429;28;20519;-72
2021/07/07 04:49:17;;;;;;;4.65;2.55;;;12.30;99.90;;;12.07;100.00;100971.34;4183507;28;20025;-72
2021/07/07 04:51:18;;;;;;;7.72;3.10;;;12.40;99.90;;;12.12;100.00;100970.88;4200297;28;20078;-72
2021/07/07 04:53:19;;;;;;;6.30;2.58;;;12.40;99.90;;;12.11;100.00;100966.56;4217795;28;20024;-72
2021/07/07 04:55:20;;;;;;;5.55;2.90;;;12.40;99.90;;;12.17;100.00;100971.22;4218256;28;20035;-72
2021/07/07 04:57:21;;;;;;;8.98;2.65;;;12.50;99.90;;;12.16;100.00;100973.03;4216918;28;20111;-73
2021/07/07 04:59:22;;;;;;;5.28;3.15;;;12.50;99.90;;;12.06;100.00;100975.00;4200141;28;20036;-72
2021/07/07 05:01:23;;;;;;;5.15;2.67;;;12.50;99.90;;;12.12;100.00;100979.66;4200105;28;20028;-73
2021/07/07 05:03:24;;;;;;;8.77;2.95;;;12.50;99.90;;;12.26;100.00;100985.31;4218213;28;20479;-72
2021/07/07 05:05:24;;;;;;;10.77;3.13;;;12.60;99.90;;;12.15;100.00;100967.94;4183507;28;20021;-73
2021/07/07 05:07:26;;;;;;;9.85;3.38;;;12.60;99.90;;;12.25;100.00;100975.69;4218087;28;20020;-72
2021/07/07 05:09:26;;;;;;;6.28;2.53;;;12.60;99.90;;;12.31;100.00;100977.69;4217785;28;20034;-73
2021/07/07 05:11:27;;;;;;;8.35;3.83;;;12.70;99.90;;;12.40;100.00;100974.09;4217993;28;20046;-72
2021/07/07 05:13:30;;;;;;;5.78;2.92;;;12.70;99.90;;;12.41;99.57;100966.00;4200002;28;20036;-72
2021/07/07 05:15:32;;;;;;;6.20;2.78;;;12.70;99.90;;;12.47;99.40;100972.47;4200129;28;20024;-72
2021/07/07 05:17:33;;;;;;;5.20;2.63;;;12.80;99.90;;;12.42;99.79;100964.19;4200058;28;20403;-72
2021/07/07 05:19:35;;;;;;;9.60;3.10;;;12.80;99.90;;;12.37;99.89;100967.31;4217905;28;20474;-72
2021/07/07 05:21:37;;;;;;;5.63;2.38;;;12.80;99.90;;;12.45;100.00;100974.44;4217936;28;20028;-72
2021/07/07 05:23:39;;;;;;;4.13;2.55;;;12.80;99.90;;;12.55;99.29;100980.41;4217619;28;20141;-72
2021/07/07 05:25:40;;;;;;;7.18;2.63;;;12.90;99.90;;;12.54;99.46;100973.47;4199859;28;20155;-72
2021/07/07 05:27:42;;;;;;;5.28;2.65;;;12.90;99.90;;;12.59;98.93;100987.03;4218046;28;20511;-72
2021/07/07 05:29:43;;;;;;;6.20;2.90;;;13.00;99.90;;;12.64;99.37;100997.94;4183313;28;20032;-72
2021/07/07 05:31:44;;;;;;;13.55;3.13;;;13.00;99.90;;;12.55;99.79;100996.28;4217727;28;20028;-72
2021/07/07 05:33:45;;;;;;;4.70;2.58;;;13.00;99.90;;;12.57;100.00;100994.31;4217781;28;20050;-74
2021/07/07 05:35:46;;;;;;;5.82;2.50;;;13.00;99.90;;;12.56;99.96;100993.50;4205983;28;20043;-73
2021/07/07 05:37:48;;;;;;;6.10;2.97;;;13.10;99.90;;;12.61;100.00;100996.47;4217516;28;20106;-73
2021/07/07 05:39:50;;;;;;;3.55;2.60;;;13.10;99.90;;;12.69;100.00;100998.31;4199230;28;20029;-73
2021/07/07 05:41:51;;;;;;;9.82;2.90;;;13.10;99.90;;;12.69;100.00;100999.13;4179947;28;20047;-72
2021/07/07 05:43:54;;;;;;;7.35;2.88;;;13.20;99.90;;;12.68;100.00;100994.00;4199659;28;20025;-73
2021/07/07 05:45:57;;;;;;;5.65;2.88;;;13.20;99.90;;;12.77;100.00;100996.50;4218924;28;20023;-72
2021/07/07 05:47:59;;;;;;;6.38;3.15;;;13.20;99.90;;;12.74;100.00;101004.75;4220673;28;20028;-72
2021/07/07 05:50:00;;;;;;;6.40;2.80;;;13.20;99.90;;;12.74;100.00;101006.59;4220394;28;20032;-72
2021/07/07 05:52:01;;;;;;;4.93;2.97;;;13.20;99.90;;;12.74;100.00;100996.00;4203518;28;20052;-73
2021/07/07 05:54:02;;;;;;;8.02;3.17;;;13.30;99.90;;;12.75;100.00;101011.69;4229783;28;20016;-72
2021/07/07 05:56:03;;;;;;;7.75;3.47;;;13.30;99.90;;;12.68;100.00;101007.22;4185781;28;20078;-72
2021/07/07 05:58:04;;;;;;;7.15;3.25;;;13.30;99.90;;;12.82;100.00;101009.22;4220310;28;20482;-72
2021/07/07 06:00:18;;;;;;;6.65;3.78;;;13.30;99.90;;;12.81;100.00;101002.31;4202347;28;20028;-73
2021/07/07 06:02:25;;;;;;;10.55;3.50;;;13.30;99.90;;;12.80;100.00;101015.69;4199739;28;20537;-72
2021/07/07 06:04:45;;;;;;;;;;;;;;;;;;;;;
2021/07/07 06:06:46;;;;;;;5.25;3.03;;;13.40;99.90;;;12.93;100.00;101010.75;4202904;28;20025;-72
2021/07/07 06:08:47;;;;;;;6.03;3.33;;;13.40;99.90;;;13.05;100.00;101010.22;4201559;28;20032;-73
2021/07/07 06:10:48;;;;;;;6.68;2.67;;;13.50;99.90;;;13.06;100.00;101003.94;4202029;28;20031;-74
2021/07/07 06:12:50;;;;;;;5.75;2.95;;;13.60;99.90;;;13.20;100.00;101011.25;4219794;28;20028;-74
2021/07/07 06:14:51;;;;;;;10.13;3.28;;;13.70;99.90;;;13.23;100.00;101021.53;4184832;28;20087;-74
2021/07/07 06:16:52;;;;;;;7.53;2.75;;;13.70;99.90;;;13.26;100.00;101018.53;4184992;28;20061;-74
2021/07/07 06:18:53;;;;;;;7.05;3.30;;;13.80;99.90;;;13.42;100.00;101022.16;4219565;28;20020;-75
2021/07/07 06:20:54;;;;;;;4.20;2.83;;;13.90;99.90;;;13.52;100.00;101028.13;4219529;28;20058;-75
2021/07/07 06:22:55;;;;;;;7.65;3.55;;;14.00;99.90;;;13.62;100.00;101029.59;4201775;28;20021;-75
2021/07/07 06:24:56;;;;;;;8.82;2.92;;;14.00;99.90;;;13.70;99.67;101026.94;4184418;28;20033;-75
2021/07/07 06:26:57;;;;;;;8.25;2.95;;;14.20;99.90;;;13.64;99.88;101027.63;4184826;28;20090;-75
2021/07/07 06:28:58;;;;;;;6.10;3.10;;;14.30;99.90;;;13.85;99.12;101029.72;4201424;28;20028;-74
2021/07/07 06:30:59;;;;;;;10.40;3.20;;;14.40;99.90;;;13.84;98.91;101034.19;4201441;28;20064;-75
2021/07/07 06:33:02;;;;;;;4.25;2.58;;;14.50;99.90;;;14.05;98.34;101036.28;4183955;28;20461;-73
2021/07/07 06:35:04;;;;;;;11.82;3.40;;;14.60;99.90;;;14.24;97.60;101038.53;4184526;28;20569;-73
2021/07/07 06:37:05;;;;;;;9.15;3.55;;;14.80;99.90;;;14.32;97.90;101037.66;4201336;28;20029;-74
2021/07/07 06:39:06;;;;;;;5.68;3.28;;;14.90;99.90;;;14.42;96.51;101045.44;4200805;28;20140;-73
2021/07/07 06:41:07;;;;;;;9.02;3.20;;;15.20;99.90;;;14.67;96.99;101052.28;4192135;28;20025;-73
2021/07/07 06:43:08;;;;;;;4.05;2.95;;;15.40;99.90;;;14.84;95.15;101059.16;4219449;28;20044;-73
2021/07/07 06:45:10;;;;;;;6.53;3.20;;;15.60;99.90;;;14.97;94.09;101048.75;4200933;28;20024;-72
2021/07/07 06:47:11;;;;;;;7.72;2.90;;;15.80;99.90;;;15.00;94.32;101056.38;4201456;28;20380;-72
2021/07/07 06:49:12;;;;;;;9.40;3.05;;;15.90;99.90;;;15.17;93.86;101059.75;4201120;28;20040;-74
2021/07/07 06:51:13;;;;;;;5.25;3.25;;;16.10;99.90;;;15.30;94.07;101067.94;4219248;28;20335;-75
2021/07/07 06:53:15;;;;;;;8.38;3.10;;;16.20;99.90;;;15.54;93.64;101061.63;4200797;28;20032;-74
2021/07/07 06:55:16;;;;;;;5.28;2.33;;;16.50;99.90;;;15.77;93.10;101057.09;4218767;28;20036;-74
2021/07/07 06:57:17;;;;;;;5.32;2.40;;;16.70;99.90;;;15.87;92.58;101057.63;4200040;28;20028;-74
2021/07/07 06:59:18;;;;;;;7.65;2.85;;;16.90;99.90;;;15.81;92.88;101063.69;4217911;28;20039;-74
2021/07/07 07:01:19;;;;;;;8.13;2.53;;;16.90;99.90;;;15.88;94.60;101064.63;4201060;28;20527;-74
2021/07/07 07:03:20;;;;;;;9.73;3.42;;;17.00;99.90;;;15.96;93.16;101067.19;4183374;28;20037;-73
2021/07/07 07:05:21;;;;;;;7.22;3.30;;;17.10;99.90;;;15.94;94.06;101069.22;4218824;28;20046;-72
2021/07/07 07:07:22;;;;;;;8.07;2.88;;;17.10;99.90;;;16.00;93.28;101076.47;4183333;28;20141;-73
2021/07/07 07:09:24;;;;;;;8.68;3.20;;;17.20;99.90;;;16.01;94.39;101076.25;4218403;28;20505;-73
2021/07/07 07:11:25;;;;;;;11.38;3.25;;;17.20;99.90;;;16.00;91.20;101071.13;4183925;28;20021;-74
2021/07/07 07:13:25;;;;;;;5.18;2.80;;;17.20;99.90;;;16.15;91.33;101079.13;4200756;28;20020;-74
2021/07/07 07:15:26;;;;;;;10.43;2.95;;;17.20;99.90;;;16.18;90.48;101076.09;4184043;28;20025;-75
2021/07/07 07:17:27;;;;;;;9.82;2.60;;;17.20;99.90;;;16.24;90.29;101080.69;4200756;28;20060;-74
2021/07/07 07:19:28;;;;;;;10.52;3.30;;;17.20;99.90;;;16.25;90.38;101088.47;4218276;28;20039;-73
2021/07/07 07:21:29;;;;;;;5.28;2.95;;;17.30;99.90;;;16.06;89.58;101083.72;4218701;28;20024;-74
2021/07/07 07:23:30;;;;;;;5.18;2.20;;;17.20;99.90;;;16.08;90.96;101079.03;4199477;28;20029;-73
2021/07/07 07:25:31;;;;;;;13.68;3.30;;;17.20;99.90;;;16.16;90.91;101092.22;4218177;28;20024;-75
2021/07/07 07:27:32;;;;;;;8.48;3.55;;;17.20;99.90;;;16.27;89.94;101097.13;4184001;28;20033;-73
2021/07/07 07:29:34;;;;;;;5.65;2.35;;;17.30;99.90;;;16.47;88.14;101092.88;4200655;28;20025;-73
2021/07/07 07:31:35;;;;;;;7.03;3.30;;;17.40;99.90;;;16.49;88.37;101098.81;4218622;28;20039;-74
2021/07/07 07:33:36;;;;;;;7.75;3.20;;;17.40;99.90;;;16.24;89.45;101091.31;4200526;28;20434;-74
2021/07/07 07:35:37;;;;;;;8.73;3.10;;;17.40;99.90;;;16.08;90.36;101088.84;4218189;28;20086;-74
2021/07/07 07:37:42;;;;;;;7.20;3.20;;;17.30;99.90;;;16.19;92.84;101099.03;4183882;28;20090;-74
2021/07/07 07:39:45;;;;;;;6.65;2.75;;;17.30;99.90;;;16.25;90.39;101103.59;4217785;28;20044;-73
2021/07/07 07:41:47;;;;;;;8.98;3.35;;;17.40;99.90;;;16.21;89.42;101097.00;4200520;28;20020;-73
2021/07/07 07:43:48;;;;;;;9.02;2.92;;;17.40;99.90;;;16.26;90.10;101110.59;4183520;28;20033;-72
2021/07/07 07:45:52;;;;;;;6.07;3.00;;;17.30;99.90;;;16.19;89.79;101099.84;4200326;28;20020;-73
2021/07/07 07:47:53;;;;;;;11.10;3.53;;;17.20;99.90;;;16.15;89.93;101100.41;4200466;28;20085;-73
2021/07/07 07:49:54;;;;;;;10.07;3.28;;;17.20;99.90;;;16.10;89.50;101106.25;4200253;28;20454;-71
2021/07/07 07:51:55;;;;;;;11.95;2.75;;;17.10;99.90;;;16.25;89.29;101101.78;4200178;28;20024;-72
2021/07/07 07:53:57;;;;;;;7.50;3.00;;;17.20;99.90;;;16.34;89.11;101113.97;4216407;28;20094;-72
2021/07/07 07:55:58;;;;;;;9.02;2.95;;;17.30;99.90;;;16.24;87.04;101112.63;4200039;28;20024;-72
2021/07/07 07:57:59;;;;;;;5.32;2.40;;;17.30;99.90;;;16.42;87.28;101113.91;4218204;28;20031;-72
2021/07/07 08:00:00;;;;;;;4.80;3.03;;;17.30;99.90;;;16.55;88.81;101115.91;4217980;28;20039;-73
2021/07/07 08:02:01;;;;;;;7.88;3.40;;;17.30;99.90;;;16.17;89.23;101111.69;4216751;28;20020;-73
2021/07/07 08:04:03;;;;;;;7.15;2.83;;;17.40;99.90;;;16.39;88.72;101121.44;4199863;28;20029;-72
2021/07/07 08:06:04;;;;;;;9.05;3.47;;;17.40;99.90;;;16.71;88.82;101112.22;4193734;28;20017;-72
2021/07/07 08:08:06;;;;;;;7.15;3.10;;;17.60;99.90;;;16.72;85.51;101111.22;4231508;28;20027;-73
2021/07/07 08:10:10;;;;;;;10.18;3.42;;;17.80;99.90;;;16.81;88.38;101120.75;4213224;28;20024;-72
2021/07/07 08:12:11;;;;;;;4.43;2.83;;;17.90;99.90;;;16.96;87.85;101121.56;4200239;28;20029;-72
2021/07/07 08:14:12;;;;;;;10.07;3.08;;;18.10;99.90;;;17.04;84.27;101119.59;4217732;28;20027;-73
2021/07/07 08:16:13;;;;;;;6.15;2.67;;;18.20;99.90;;;17.19;83.82;101138.22;4199914;28;20477;-72
2021/07/07 08:18:14;;;;;;;7.57;2.40;;;18.30;99.90;;;17.04;82.83;101124.09;4200021;28;20110;-71
2021/07/07 08:20:16;;;;;;;7.30;2.75;;;18.40;99.90;;;16.91;82.93;101127.44;4199914;28;20025;-71
2021/07/07 08:22:18;;;;;;;6.43;2.78;;;18.40;99.90;;;17.02;82.56;101118.13;4217913;28;20491;-71